Time;durP1;ratioP1;P1;durP2;ratioP2;P2;SDS_P1;SDS_P2;PMS_P1;PMS_P2;Temp;Humidity;BMP_temperature;BMP_pressure;BME280_temperature;BME280_humidity;BME280_pressure;Samples;Min_cycle;Max_cycle;Signal;HPM_P1;HPM_P2
2023/01/18 00:00:09;;;;;;;26.97;10.57;;;;;;;10.49;100.00;97956.78;5072733;28;20294;-57
2023/01/18 00:02:36;;;;;;;19.63;10.10;;;;;;;10.46;100.00;97951.75;5073202;28;20200;-55
2023/01/18 00:05:04;;;;;;;18.60;9.90;;;;;;;10.54;100.00;97950.41;5072713;28;20200;-56
2023/01/18 00:07:31;;;;;;;15.70;9.13;;;;;;;10.55;100.00;97956.44;5072905;28;20210;-58
2023/01/18 00:09:58;;;;;;;22.40;8.93;;;;;;;10.57;100.00;97967.56;5072622;28;20200;-60
2023/01/18 00:12:25;;;;;;;21.97;8.97;;;;;;;10.50;100.00;97961.84;5072728;28;20196;-60
2023/01/18 00:14:52;;;;;;;19.50;8.80;;;;;;;10.53;100.00;97956.50;5072770;28;20200;-56
2023/01/18 00:17:19;;;;;;;15.57;7.50;;;;;;;10.50;100.00;97961.00;5072585;28;20200;-56
2023/01/18 00:19:45;;;;;;;13.00;7.67;;;;;;;10.54;100.00;97963.38;5072749;28;20214;-55
2023/01/18 00:22:14;;;;;;;8.13;6.73;;;;;;;10.54;100.00;97960.78;5072678;28;20202;-56
2023/01/18 00:24:41;;;;;;;13.17;5.87;;;;;;;10.59;100.00;97947.56;5071559;28;20208;-56
2023/01/18 00:27:09;;;;;;;5.47;4.73;;;;;;;10.71;100.00;97938.28;5071941;28;20202;-55
2023/01/18 00:29:36;;;;;;;9.37;3.60;;;;;;;10.88;100.00;97930.41;5072771;28;20215;-55
2023/01/18 00:32:04;;;;;;;5.87;3.20;;;;;;;11.05;100.00;97939.88;5072243;28;20206;-60
2023/01/18 00:34:31;;;;;;;7.37;3.40;;;;;;;11.04;100.00;97957.22;5072371;28;20338;-57
2023/01/18 00:36:58;;;;;;;7.57;3.83;;;;;;;11.06;100.00;97975.28;5072260;28;20214;-55
2023/01/18 00:39:26;;;;;;;10.73;4.87;;;;;;;11.02;100.00;97977.22;5072030;28;20226;-60
2023/01/18 00:44:37;;;;;;;8.90;4.43;;;;;;;11.05;100.00;97965.81;5072356;28;20691;-55
2023/01/18 00:47:04;;;;;;;10.67;3.57;;;;;;;11.11;100.00;97979.28;5071895;28;20283;-56
2023/01/18 00:49:31;;;;;;;5.63;3.13;;;;;;;11.16;100.00;97985.09;5071491;28;20211;-60
2023/01/18 00:51:58;;;;;;;6.17;4.10;;;;;;;11.26;100.00;97988.00;5071329;28;20192;-59
2023/01/18 00:54:26;;;;;;;8.37;3.80;;;;;;;11.28;100.00;97988.75;5072027;28;20198;-57
2023/01/18 00:56:53;;;;;;;8.37;4.30;;;;;;;11.23;100.00;97989.00;5072167;28;20279;-60
2023/01/18 00:59:20;;;;;;;6.73;3.93;;;;;;;11.23;100.00;97989.00;5071692;28;20216;-54
2023/01/18 01:01:47;;;;;;;10.40;4.13;;;;;;;11.22;100.00;97992.53;5072064;28;20204;-55
2023/01/18 01:06:58;;;;;;;7.10;3.27;;;;;;;11.20;100.00;97980.53;5071744;28;20195;-56
2023/01/18 01:09:29;;;;;;;7.13;2.97;;;;;;;11.17;100.00;97967.75;5071634;28;20192;-55
2023/01/18 01:28:28;;;;;;;6.20;4.13;;;;;;;10.74;100.00;97954.50;5071518;28;20200;-59
2023/01/18 01:30:57;;;;;;;8.90;4.57;;;;;;;10.72;100.00;97956.34;5071481;28;20266;-55
2023/01/18 01:33:24;;;;;;;7.73;5.40;;;;;;;10.66;100.00;97967.06;5071259;28;20196;-55
2023/01/18 01:35:55;;;;;;;7.73;4.20;;;;;;;10.75;100.00;97945.81;5070715;28;20719;-58
2023/01/18 01:38:22;;;;;;;9.17;4.97;;;;;;;10.69;100.00;97943.56;5071244;28;20753;-60
2023/01/18 01:40:58;;;;;;;8.60;5.07;;;;;;;10.65;100.00;97939.44;5071532;28;20595;-54
2023/01/18 01:43:40;;;;;;;8.97;4.03;;;;;;;10.66;100.00;97951.50;5070989;28;20686;-55
2023/01/18 01:46:18;;;;;;;11.87;5.33;;;;;;;10.69;100.00;97940.97;5070646;28;20568;-56
2023/01/18 01:48:46;;;;;;;9.23;5.10;;;;;;;10.56;100.00;97921.78;5070851;28;20196;-55
2023/01/18 01:51:13;;;;;;;11.77;5.10;;;;;;;10.54;100.00;97908.06;5070910;28;20637;-60
2023/01/18 01:53:40;;;;;;;6.20;4.00;;;;;;;10.48;100.00;97903.22;5070898;28;20200;-55
2023/01/18 01:56:10;;;;;;;12.53;3.87;;;;;;;10.63;100.00;97930.06;5070574;28;20627;-54
2023/01/18 01:58:37;;;;;;;11.03;4.00;;;;;;;10.62;100.00;97923.19;5070584;28;20233;-57
2023/01/18 02:01:04;;;;;;;7.83;3.23;;;;;;;10.65;100.00;97918.69;5070866;28;20195;-55
2023/01/18 02:03:31;;;;;;;7.53;3.80;;;;;;;10.82;100.00;97951.53;5070515;28;20196;-55
2023/01/18 02:06:05;;;;;;;7.03;3.70;;;;;;;10.80;100.00;97938.63;5070403;28;20202;-60
2023/01/18 02:08:32;;;;;;;6.57;3.17;;;;;;;10.81;100.00;97942.91;5070654;28;20573;-55
2023/01/18 02:10:59;;;;;;;4.63;3.17;;;;;;;10.90;100.00;97937.19;5070221;28;20191;-55
2023/01/18 02:13:27;;;;;;;4.90;2.60;;;;;;;10.93;100.00;97936.19;5070723;28;20563;-60
2023/01/18 02:16:04;;;;;;;3.10;2.70;;;;;;;10.91;100.00;97946.66;5070240;28;20281;-60
2023/01/18 02:18:35;;;;;;;7.93;2.77;;;;;;;10.96;100.00;97938.59;5070306;28;20220;-59
2023/01/18 02:21:16;;;;;;;5.20;2.67;;;;;;;11.01;100.00;97951.34;5070114;28;20200;-59
2023/01/18 02:24:26;;;;;;;8.37;3.20;;;;;;;11.05;100.00;97958.03;5070073;28;20196;-60
2023/01/18 02:27:00;;;;;;;6.17;2.70;;;;;;;10.83;100.00;97912.50;5070376;28;20208;-59
2023/01/18 02:29:47;;;;;;;5.03;2.30;;;;;;;11.02;100.00;97943.47;5070141;28;20192;-60
2023/01/18 02:32:22;;;;;;;6.30;2.60;;;;;;;11.02;100.00;97960.78;5069928;28;20203;-55
2023/01/18 02:34:52;;;;;;;12.40;6.00;;;;;;;10.96;100.00;97958.53;5070494;28;20290;-56
2023/01/18 02:37:31;;;;;;;9.47;4.63;;;;;;;10.81;100.00;97937.69;5069731;28;20195;-60
2023/01/18 02:40:11;;;;;;;7.23;4.60;;;;;;;10.84;100.00;97908.97;5069795;28;20230;-60
2023/01/18 02:48:21;;;;;;;6.33;4.20;;;;;;;10.89;100.00;97943.31;5069186;28;20199;-60
2023/01/18 02:50:48;;;;;;;8.17;3.20;;;;;;;10.76;100.00;97951.84;5069731;28;20192;-60
2023/01/18 02:53:15;;;;;;;4.43;3.20;;;;;;;10.73;100.00;97958.03;5069750;28;20196;-61
2023/01/18 02:55:47;;;;;;;7.20;2.77;;;;;;;10.73;100.00;97957.19;5069709;28;20203;-60
2023/01/18 02:58:20;;;;;;;6.77;3.03;;;;;;;10.69;100.00;97982.47;5069459;28;20196;-61
2023/01/18 03:00:53;;;;;;;8.40;4.17;;;;;;;10.67;100.00;97962.72;5069606;28;20214;-59
2023/01/18 03:03:23;;;;;;;5.97;3.57;;;;;;;10.57;100.00;97922.63;5069344;28;20755;-55
2023/01/18 03:05:53;;;;;;;6.73;3.23;;;;;;;10.83;100.00;97968.78;5069711;28;20195;-55
2023/01/18 03:08:25;;;;;;;7.10;2.93;;;;;;;10.84;100.00;97957.44;5069543;28;20191;-55
2023/01/18 03:11:00;;;;;;;7.57;3.00;;;;;;;10.89;100.00;97945.91;5069716;28;20200;-55
2023/01/18 03:13:39;;;;;;;5.77;3.10;;;;;;;10.88;100.00;97944.22;5069738;28;20191;-58
2023/01/18 03:16:14;;;;;;;10.10;3.80;;;;;;;10.86;100.00;97958.19;5069534;28;20192;-58
2023/01/18 03:19:00;;;;;;;4.17;3.00;;;;;;;10.80;100.00;97953.34;5069696;28;20607;-55
2023/01/18 03:21:35;;;;;;;5.83;3.07;;;;;;;10.79;100.00;97956.88;5069834;28;20202;-55
2023/01/18 03:24:05;;;;;;;9.80;3.70;;;;;;;10.90;100.00;97970.94;5069456;28;20221;-55
2023/01/18 03:26:38;;;;;;;9.07;3.57;;;;;;;10.84;100.00;97953.09;5069814;28;20635;-55
2023/01/18 03:34:49;;;;;;;7.93;3.10;;;;;;;10.68;100.00;97944.47;5069375;28;20242;-59
2023/01/18 03:37:21;;;;;;;5.43;3.00;;;;;;;10.66;100.00;97941.13;5069743;28;20591;-59
2023/01/18 03:39:52;;;;;;;9.27;2.90;;;;;;;10.70;100.00;97944.41;5069246;28;20224;-59
2023/01/18 03:42:23;;;;;;;10.97;3.10;;;;;;;10.61;100.00;97937.94;5069143;28;20700;-60
2023/01/18 03:44:55;;;;;;;8.53;3.73;;;;;;;10.60;100.00;97938.03;5069348;28;20206;-55
2023/01/18 03:47:24;;;;;;;11.47;3.90;;;;;;;10.55;100.00;97946.06;5069063;28;20196;-54
2023/01/18 03:49:51;;;;;;;17.67;4.50;;;;;;;10.53;100.00;97951.31;5069593;28;20604;-55
2023/01/18 03:52:23;;;;;;;10.13;3.60;;;;;;;10.46;100.00;97959.53;5069335;28;20540;-55
2023/01/18 03:55:01;;;;;;;12.20;4.10;;;;;;;10.41;100.00;97956.31;5069287;28;20714;-55
2023/01/18 03:57:34;;;;;;;10.50;5.37;;;;;;;10.52;100.00;97944.44;5068944;28;20214;-54
2023/01/18 04:00:02;;;;;;;13.80;3.90;;;;;;;10.49;100.00;97943.81;5072405;28;20716;-55
2023/01/18 04:02:32;;;;;;;11.03;4.70;;;;;;;10.53;100.00;97955.66;5073020;28;20741;-55
2023/01/18 04:05:02;;;;;;;11.60;3.33;;;;;;;10.54;100.00;97962.53;5072767;28;20200;-54
2023/01/18 04:07:29;;;;;;;10.70;2.83;;;;;;;10.51;100.00;97957.50;5072903;28;20200;-55
2023/01/18 04:09:56;;;;;;;8.47;3.50;;;;;;;10.58;100.00;97945.91;5072446;28;20192;-54
2023/01/18 04:12:23;;;;;;;8.27;4.30;;;;;;;10.39;100.00;97919.25;5072456;28;20231;-54
2023/01/18 04:14:50;;;;;;;8.33;3.33;;;;;;;10.61;100.00;97960.47;5072851;28;20196;-54
2023/01/18 04:17:17;;;;;;;7.37;3.40;;;;;;;10.61;100.00;97968.25;5072272;28;20196;-55
2023/01/18 04:19:45;;;;;;;15.83;4.93;;;;;;;10.56;100.00;97960.69;5072393;28;20223;-56
2023/01/18 04:22:12;;;;;;;8.67;5.40;;;;;;;10.48;100.00;97961.13;5072332;28;20196;-55
2023/01/18 04:24:39;;;;;;;6.07;3.67;;;;;;;10.42;100.00;97961.44;5072205;28;20606;-59
2023/01/18 04:27:06;;;;;;;7.60;3.63;;;;;;;10.31;100.00;97970.69;5072600;28;20686;-58
2023/01/18 04:29:33;;;;;;;7.37;4.00;;;;;;;10.33;100.00;97968.84;5072584;28;20212;-55
2023/01/18 04:32:00;;;;;;;8.07;4.77;;;;;;;10.27;100.00;97993.34;5072353;28;20196;-60
2023/01/18 04:34:27;;;;;;;7.77;3.73;;;;;;;10.20;100.00;98004.94;5072286;28;20196;-59
2023/01/18 04:36:55;;;;;;;14.17;5.40;;;;;;;10.08;100.00;97983.06;5072306;28;20210;-60
2023/01/18 04:39:22;;;;;;;11.13;4.70;;;;;;;10.10;100.00;97968.28;5072527;28;20675;-59
2023/01/18 04:41:49;;;;;;;8.83;4.73;;;;;;;10.05;100.00;97962.47;5071893;28;20200;-59
2023/01/18 04:44:16;;;;;;;8.70;3.73;;;;;;;9.99;100.00;97975.75;5070469;28;20606;-59
2023/01/18 04:46:43;;;;;;;11.63;4.47;;;;;;;9.97;100.00;97958.59;5068303;28;20618;-59
2023/01/18 04:49:14;;;;;;;9.40;4.50;;;;;;;9.93;100.00;97978.63;5070399;28;20191;-59
2023/01/18 04:51:42;;;;;;;11.77;4.70;;;;;;;9.87;100.00;97965.16;5065297;28;20208;-59
2023/01/18 04:54:13;;;;;;;14.43;5.27;;;;;;;9.83;100.00;97974.84;5070718;28;20210;-60
2023/01/18 04:56:40;;;;;;;7.80;4.90;;;;;;;9.89;100.00;97968.53;5068876;28;20195;-59
2023/01/18 04:59:07;;;;;;;11.33;4.77;;;;;;;9.90;100.00;97976.22;5070903;28;20249;-60
2023/01/18 05:01:35;;;;;;;15.27;10.53;;;;;;;9.94;100.00;97982.06;5071492;28;20575;-60
2023/01/18 05:04:02;;;;;;;15.63;8.13;;;;;;;9.86;100.00;97969.50;5070121;28;20196;-60
2023/01/18 05:06:29;;;;;;;11.90;7.17;;;;;;;9.77;100.00;97965.63;5072187;28;20218;-59
2023/01/18 05:08:56;;;;;;;13.67;6.37;;;;;;;9.64;100.00;97959.38;5071900;28;20204;-60
2023/01/18 05:11:25;;;;;;;16.23;6.93;;;;;;;9.62;100.00;97978.50;5071301;28;20575;-62
2023/01/18 05:13:53;;;;;;;14.70;6.20;;;;;;;9.59;100.00;97976.09;5071514;28;20200;-59
2023/01/18 05:16:21;;;;;;;16.67;6.70;;;;;;;9.58;100.00;98008.06;5071884;28;20208;-59
2023/01/18 05:18:48;;;;;;;16.17;6.57;;;;;;;9.63;100.00;98032.00;5071230;28;20196;-61
2023/01/18 05:21:15;;;;;;;18.67;9.67;;;;;;;9.55;100.00;98001.28;5071545;28;20555;-60
2023/01/18 05:23:42;;;;;;;11.87;7.40;;;;;;;9.59;100.00;97997.66;5071558;28;20200;-60
2023/01/18 05:26:15;;;;;;;19.47;8.23;;;;;;;9.63;100.00;98014.69;5071569;28;20585;-60
2023/01/18 05:28:44;;;;;;;21.43;7.73;;;;;;;9.29;100.00;98005.13;5071338;28;20587;-60
2023/01/18 05:31:11;;;;;;;14.00;7.60;;;;;;;9.32;100.00;97993.78;5069967;28;20200;-59
2023/01/18 05:33:38;;;;;;;12.27;5.13;;;;;;;9.47;100.00;97990.47;5070610;28;20196;-59
2023/01/18 05:36:06;;;;;;;23.77;7.90;;;;;;;9.53;100.00;97997.09;5071016;28;20257;-59
2023/01/18 05:38:33;;;;;;;12.10;7.17;;;;;;;9.55;100.00;97995.28;5070795;28;20207;-60
2023/01/18 05:41:00;;;;;;;16.40;7.07;;;;;;;9.53;100.00;98005.69;5070861;28;20223;-59
2023/01/18 05:43:28;;;;;;;17.47;9.30;;;;;;;9.48;100.00;97993.91;5070529;28;20238;-59
2023/01/18 05:45:57;;;;;;;17.30;9.50;;;;;;;9.51;100.00;97986.81;5070117;28;20202;-59
2023/01/18 05:48:24;;;;;;;19.17;8.77;;;;;;;9.57;100.00;97965.81;5070723;28;20202;-59
2023/01/18 05:50:52;;;;;;;14.10;7.40;;;;;;;9.61;100.00;98005.31;5070930;28;20578;-59
2023/01/18 05:53:21;;;;;;;17.27;7.93;;;;;;;9.53;100.00;97997.94;5070710;28;20239;-60
2023/01/18 05:55:56;;;;;;;9.50;6.67;;;;;;;9.59;100.00;98008.00;5070732;28;20200;-60
2023/01/18 05:58:23;;;;;;;19.83;7.73;;;;;;;9.54;100.00;98004.78;5070308;28;20198;-55
2023/01/18 06:00:50;;;;;;;18.03;8.53;;;;;;;9.53;100.00;98004.88;5070572;28;20224;-60
2023/01/18 06:03:18;;;;;;;22.53;7.53;;;;;;;9.44;100.00;98030.28;5070481;28;20202;-60
2023/01/18 06:05:46;;;;;;;20.03;8.30;;;;;;;9.41;100.00;98033.03;5070523;28;20202;-60
2023/01/18 06:08:13;;;;;;;28.00;9.63;;;;;;;9.50;100.00;98016.19;5070526;28;20683;-56
2023/01/18 06:10:40;;;;;;;16.47;7.73;;;;;;;9.51;100.00;98009.28;5070401;28;20192;-60
2023/01/18 06:13:07;;;;;;;18.97;7.50;;;;;;;9.54;100.00;98022.91;5070340;28;20243;-60
2023/01/18 06:15:34;;;;;;;14.77;7.27;;;;;;;9.69;100.00;98029.13;5070546;28;20586;-59
2023/01/18 06:18:01;;;;;;;21.67;8.10;;;;;;;9.78;100.00;98026.91;5070183;28;20200;-58
2023/01/18 06:20:29;;;;;;;10.83;7.03;;;;;;;9.85;100.00;98024.84;5070234;28;20767;-59
2023/01/18 06:22:57;;;;;;;20.03;9.50;;;;;;;9.98;100.00;98038.88;5069387;28;20287;-58
2023/01/18 06:25:25;;;;;;;16.10;9.53;;;;;;;10.19;100.00;98052.53;5069852;28;20569;-59
2023/01/18 06:27:52;;;;;;;21.37;9.40;;;;;;;10.31;100.00;98069.22;5070352;28;20227;-59
2023/01/18 06:30:19;;;;;;;20.57;9.80;;;;;;;10.38;100.00;98052.47;5069934;28;20200;-60
2023/01/18 06:32:48;;;;;;;15.77;7.23;;;;;;;10.50;100.00;98050.03;5070297;28;20694;-59
2023/01/18 06:35:15;;;;;;;16.23;7.17;;;;;;;10.67;100.00;98051.78;5070051;28;20199;-59
2023/01/18 06:37:45;;;;;;;18.33;9.07;;;;;;;10.72;100.00;98060.13;5070670;28;20581;-60
2023/01/18 06:40:12;;;;;;;24.13;8.63;;;;;;;10.71;100.00;98047.28;5069601;28;20314;-62
2023/01/18 06:42:39;;;;;;;14.77;7.83;;;;;;;10.76;100.00;98021.91;5069948;28;20223;-60
2023/01/18 06:45:07;;;;;;;20.07;7.47;;;;;;;10.79;100.00;98076.25;5069948;28;20199;-56
2023/01/18 06:47:34;;;;;;;15.43;8.27;;;;;;;10.84;100.00;98075.06;5070320;28;20196;-55
2023/01/18 06:50:01;;;;;;;12.23;7.63;;;;;;;10.89;100.00;98060.09;5069989;28;20187;-56
2023/01/18 06:52:28;;;;;;;16.23;7.30;;;;;;;11.01;100.00;98065.56;5069833;28;20206;-56
2023/01/18 06:54:56;;;;;;;15.80;7.87;;;;;;;11.09;100.00;98063.38;5069784;28;20583;-55
2023/01/18 06:57:23;;;;;;;14.57;6.83;;;;;;;11.20;100.00;98072.25;5069763;28;20196;-55
2023/01/18 06:59:52;;;;;;;23.50;7.90;;;;;;;11.31;100.00;98074.28;5069464;28;20715;-56
2023/01/18 07:02:19;;;;;;;14.90;7.23;;;;;;;11.32;100.00;98057.78;5066851;28;20646;-56
2023/01/18 07:04:46;;;;;;;20.67;7.43;;;;;;;11.37;100.00;98052.34;5049098;28;20220;-55
2023/01/18 07:07:14;;;;;;;11.23;7.87;;;;;;;11.35;100.00;98039.44;5048909;28;20694;-54
2023/01/18 07:09:41;;;;;;;17.63;7.53;;;;;;;11.44;100.00;98059.69;5049625;28;20223;-55
2023/01/18 07:12:10;;;;;;;20.70;9.13;;;;;;;11.39;100.00;98092.91;5048755;28;20239;-56
2023/01/18 07:14:37;;;;;;;21.03;11.03;;;;;;;11.46;100.00;98083.84;5048774;28;20225;-55
2023/01/18 07:17:04;;;;;;;23.30;10.50;;;;;;;11.53;100.00;98085.16;5048676;28;20224;-55
2023/01/18 07:19:31;;;;;;;17.43;9.50;;;;;;;11.67;100.00;98101.75;5073878;28;20231;-54
2023/01/18 07:21:58;;;;;;;30.80;11.20;;;;;;;11.60;100.00;98107.31;5069302;28;20200;-54
2023/01/18 07:24:25;;;;;;;20.17;10.07;;;;;;;11.69;100.00;98097.31;5069306;28;20250;-56
2023/01/18 07:26:52;;;;;;;22.03;11.03;;;;;;;11.64;100.00;98101.00;5069621;28;20196;-53
2023/01/18 07:29:20;;;;;;;27.13;12.00;;;;;;;11.63;100.00;98091.53;5069852;28;20196;-51
2023/01/18 07:31:48;;;;;;;19.93;8.53;;;;;;;11.60;100.00;98104.72;5069427;28;20242;-57
2023/01/18 07:34:14;;;;;;;22.47;10.43;;;;;;;11.50;100.00;98095.75;5071897;28;20813;-58
2023/01/18 07:36:41;;;;;;;32.53;15.67;;;;;;;11.51;100.00;98101.78;5073433;28;20579;-58
2023/01/18 07:39:09;;;;;;;24.13;16.40;;;;;;;11.55;100.00;98103.28;5073442;28;20192;-58
2023/01/18 07:41:36;;;;;;;28.67;15.93;;;;;;;11.49;100.00;98099.25;5073450;28;20303;-57
2023/01/18 07:44:03;;;;;;;34.37;16.13;;;;;;;11.51;100.00;98100.00;5073037;28;20231;-58
2023/01/18 07:46:31;;;;;;;30.80;15.17;;;;;;;11.53;100.00;98103.34;5073333;28;20206;-58
2023/01/18 07:49:01;;;;;;;33.23;13.43;;;;;;;11.55;100.00;98124.06;5073252;28;20242;-56
2023/01/18 07:51:28;;;;;;;25.43;13.60;;;;;;;11.56;100.00;98113.59;5073060;28;20192;-56
2023/01/18 07:53:55;;;;;;;24.23;13.20;;;;;;;11.60;100.00;98127.25;5073178;28;20192;-54
2023/01/18 07:56:24;;;;;;;26.37;13.90;;;;;;;11.58;100.00;98108.31;5073098;28;20203;-58
2023/01/18 07:58:52;;;;;;;24.40;12.00;;;;;;;11.70;100.00;98118.03;5073134;28;20203;-57
2023/01/18 08:01:24;;;;;;;25.30;12.53;;;;;;;11.80;100.00;98115.78;5072737;28;20319;-60
2023/01/18 08:03:55;;;;;;;30.03;12.77;;;;;;;11.94;100.00;98121.06;5073023;28;20200;-60
2023/01/18 08:06:24;;;;;;;26.37;13.20;;;;;;;11.87;100.00;98145.69;5067565;28;20210;-63
2023/01/18 08:08:51;;;;;;;36.13;15.83;;;;;;;12.03;100.00;98150.88;5068281;28;20208;-52
2023/01/18 08:11:19;;;;;;;28.90;16.63;;;;;;;12.19;100.00;98160.31;5066858;28;20203;-54
2023/01/18 08:13:47;;;;;;;26.03;14.33;;;;;;;12.28;100.00;98139.00;5066296;28;20648;-55
2023/01/18 08:16:14;;;;;;;23.70;12.97;;;;;;;12.54;100.00;98152.25;5072026;28;20200;-60
2023/01/18 08:18:43;;;;;;;25.30;13.13;;;;;;;12.60;100.00;98144.94;5072757;28;20192;-53
2023/01/18 08:21:13;;;;;;;35.63;19.40;;;;;;;12.96;100.00;98167.13;5072372;28;20239;-53
2023/01/18 08:23:40;;;;;;;37.47;20.67;;;;;;;13.12;100.00;98164.41;5072521;28;20206;-53
2023/01/18 08:26:09;;;;;;;32.63;17.43;;;;;;;13.34;100.00;98167.41;5072228;28;20199;-53
2023/01/18 08:28:36;;;;;;;31.23;15.73;;;;;;;13.46;100.00;98174.47;5072442;28;20202;-55
2023/01/18 08:31:09;;;;;;;30.03;11.63;;;;;;;13.67;100.00;98162.72;5072391;28;20202;-53
2023/01/18 08:33:41;;;;;;;19.13;9.10;;;;;;;13.87;100.00;98152.81;5072500;28;20200;-53
2023/01/18 08:36:14;;;;;;;30.73;10.80;;;;;;;14.09;100.00;98151.34;5072319;28;20280;-54
2023/01/18 08:38:41;;;;;;;17.00;8.93;;;;;;;14.37;100.00;98158.19;5072330;28;20206;-53
2023/01/18 08:41:08;;;;;;;17.50;6.97;;;;;;;14.57;100.00;98167.34;5071915;28;20228;-54
2023/01/18 08:43:36;;;;;;;11.63;6.40;;;;;;;14.73;100.00;98173.22;5072248;28;20235;-55
2023/01/18 08:46:03;;;;;;;22.73;13.87;;;;;;;14.88;100.00;98176.59;5071305;28;20196;-54
2023/01/18 08:48:30;;;;;;;13.33;6.07;;;;;;;15.03;100.00;98170.31;5072144;28;20286;-53
2023/01/18 08:51:01;;;;;;;8.03;4.37;;;;;;;15.22;100.00;98178.59;5072190;28;20218;-53
2023/01/18 08:53:30;;;;;;;12.77;4.43;;;;;;;15.31;100.00;98177.09;5071819;28;20584;-53
2023/01/18 08:55:58;;;;;;;18.40;6.50;;;;;;;15.40;100.00;98173.84;5071966;28;20199;-54
2023/01/18 08:58:25;;;;;;;29.20;11.10;;;;;;;15.53;100.00;98165.97;5072063;28;20567;-53
2023/01/18 09:00:52;;;;;;;29.20;14.67;;;;;;;15.70;100.00;98152.56;5072075;28;20223;-52
2023/01/18 09:03:21;;;;;;;21.37;9.50;;;;;;;15.85;100.00;98164.56;5071941;28;20234;-54
2023/01/18 09:05:48;;;;;;;15.97;6.03;;;;;;;16.00;100.00;98180.94;5071936;28;20200;-54
2023/01/18 09:08:15;;;;;;;20.63;11.77;;;;;;;16.14;100.00;98185.19;5071714;28;20204;-54
2023/01/18 09:10:43;;;;;;;53.53;29.00;;;;;;;16.26;100.00;98179.03;5071753;28;20192;-53
2023/01/18 09:13:10;;;;;;;13.70;5.60;;;;;;;16.38;99.28;98177.31;5071749;28;20582;-53
2023/01/18 09:15:37;;;;;;;21.73;7.30;;;;;;;16.49;98.70;98183.44;5071766;28;20199;-53
2023/01/18 09:18:06;;;;;;;16.07;7.23;;;;;;;16.44;98.70;98146.28;5071496;28;20203;-53
2023/01/18 09:20:35;;;;;;;11.25;4.85;;;;;;;16.77;97.11;98186.66;5071412;28;20277;-54
2023/01/18 09:23:04;;;;;;;20.98;11.52;;;;;;;16.90;95.74;98171.69;5071345;28;20208;-54
2023/01/18 09:25:32;;;;;;;11.20;5.32;;;;;;;17.02;94.09;98170.75;5071477;28;20207;-58
2023/01/18 09:28:01;;;;;;;12.20;4.20;;;;;;;17.19;93.08;98177.31;5071539;28;20196;-58
2023/01/18 09:30:28;;;;;;;9.25;3.42;;;;;;;17.33;92.01;98185.78;5071635;28;20221;-54
2023/01/18 09:32:56;;;;;;;11.07;3.70;;;;;;;17.48;91.83;98183.78;5071201;28;20196;-54
2023/01/18 09:35:24;;;;;;;21.42;12.38;;;;;;;17.61;91.25;98175.75;5071280;28;20192;-53
2023/01/18 09:37:51;;;;;;;10.95;6.00;;;;;;;17.72;89.66;98170.53;5071565;28;20196;-53
2023/01/18 09:40:20;;;;;;;11.95;5.07;;;;;;;17.81;89.73;98182.09;5070923;28;20207;-53
2023/01/18 09:42:50;;;;;;;14.38;3.75;;;;;;;17.87;89.16;98174.56;5071102;28;20734;-53
2023/01/18 09:45:28;;;;;;;8.07;5.15;;;;;;;17.98;88.32;98168.44;5071020;28;20621;-53
2023/01/18 09:48:04;;;;;;;12.48;3.85;;;;;;;17.98;85.74;98161.41;5071141;28;20293;-54
2023/01/18 09:50:34;;;;;;;8.85;3.67;;;;;;;18.08;85.57;98161.50;5070909;28;20192;-55
2023/01/18 09:53:15;;;;;;;9.35;3.90;;;;;;;18.20;85.55;98162.28;5071047;28;20207;-54
2023/01/18 09:55:51;;;;;;;9.52;3.00;;;;;;;18.05;81.50;98157.34;5070828;28;20291;-54
2023/01/18 09:58:41;;;;;;;8.73;2.88;;;;;;;18.20;81.42;98171.00;5070514;28;20253;-54
2023/01/18 10:01:14;;;;;;;10.07;3.30;;;;;;;18.30;82.49;98182.44;5070343;28;20597;-53
2023/01/18 10:03:49;;;;;;;8.23;4.05;;;;;;;18.45;76.37;98190.88;5070634;28;20291;-54
2023/01/18 10:06:23;;;;;;;8.48;4.60;;;;;;;18.52;75.42;98177.09;5070457;28;20199;-53
2023/01/18 10:08:56;;;;;;;12.68;4.70;;;;;;;18.73;75.48;98182.41;5069214;28;20600;-53
2023/01/18 10:11:30;;;;;;;10.57;4.03;;;;;;;18.94;73.53;98184.22;5070440;28;20196;-53
2023/01/18 10:14:04;;;;;;;11.18;4.30;;;;;;;19.05;72.47;98178.88;5070598;28;20205;-54
2023/01/18 10:16:34;;;;;;;6.60;4.18;;;;;;;19.15;72.34;98177.97;5070417;28;20199;-53
2023/01/18 10:19:01;;;;;;;7.47;3.42;;;;;;;19.24;72.44;98178.97;5070361;28;20204;-53
2023/01/18 10:21:37;;;;;;;5.78;3.65;;;;;;;19.34;72.22;98173.75;5070029;28;20230;-57
2023/01/18 10:24:18;;;;;;;12.55;3.00;;;;;;;19.46;70.91;98184.06;5070384;28;20627;-58
2023/01/18 10:26:48;;;;;;;6.95;3.25;;;;;;;19.52;69.84;98194.09;5066135;28;20306;-57
2023/01/18 10:29:20;;;;;;;7.43;2.58;;;;;;;19.51;67.56;98188.97;5065930;28;20203;-58
2023/01/18 10:31:57;;;;;;;4.13;2.00;;;;;;;19.65;67.99;98200.91;5070444;28;20201;-60
2023/01/18 10:34:30;;;;;;;8.40;3.17;;;;;;;19.70;67.86;98189.03;5050264;28;20685;-59
2023/01/18 10:37:05;;;;;;;5.95;2.53;;;;;;;19.83;66.99;98199.34;5055532;28;20192;-59
2023/01/18 10:39:38;;;;;;;6.68;2.45;;;;;;;19.80;64.28;98187.25;5065862;28;20286;-59
2023/01/18 10:42:13;;;;;;;8.00;2.28;;;;;;;19.96;64.67;98212.25;5068488;28;20219;-59
2023/01/18 10:44:40;;;;;;;12.63;3.35;;;;;;;19.95;64.30;98206.16;5068813;28;20198;-60
2023/01/18 10:47:08;;;;;;;5.55;2.58;;;;;;;19.86;63.59;98213.03;5068609;28;20198;-60
2023/01/18 10:49:38;;;;;;;5.85;2.25;;;;;;;19.85;63.00;98200.03;5068711;28;20633;-59
2023/01/18 10:52:18;;;;;;;8.30;3.10;;;;;;;19.80;63.42;98200.44;5068625;28;20626;-60
2023/01/18 10:54:50;;;;;;;7.93;2.58;;;;;;;19.85;63.61;98195.59;5067249;28;20621;-60
2023/01/18 10:57:21;;;;;;;5.53;2.75;;;;;;;19.93;62.83;98202.81;5065818;28;20199;-59
2023/01/18 10:59:51;;;;;;;7.97;2.30;;;;;;;19.79;63.24;98195.28;5068323;28;20202;-60
2023/01/18 11:02:26;;;;;;;8.05;2.53;;;;;;;19.85;62.89;98218.47;5065787;28;20215;-60
2023/01/18 11:05:15;;;;;;;16.08;6.32;;;;;;;19.71;63.68;98208.28;5068481;28;20448;-60
2023/01/18 11:07:43;;;;;;;14.65;3.40;;;;;;;19.53;64.54;98210.69;5066209;28;20203;-56
2023/01/18 11:10:24;;;;;;;5.32;2.22;;;;;;;19.44;64.64;98211.47;5068483;28;20192;-55
2023/01/18 11:12:51;;;;;;;7.60;3.25;;;;;;;19.45;64.52;98211.34;5067445;28;20194;-55
2023/01/18 11:15:27;;;;;;;11.20;3.63;;;;;;;19.46;64.30;98210.38;5065741;28;20192;-55
2023/01/18 11:18:16;;;;;;;13.55;5.95;;;;;;;19.62;64.29;98212.56;5068476;28;20202;-59
2023/01/18 11:20:46;;;;;;;8.88;4.88;;;;;;;19.60;64.71;98197.88;5064773;28;20664;-59
2023/01/18 11:23:20;;;;;;;6.35;2.63;;;;;;;19.66;63.50;98205.22;5068373;28;20253;-58
2023/01/18 11:25:52;;;;;;;14.57;3.92;;;;;;;19.72;63.92;98199.44;5068334;28;20659;-58
2023/01/18 11:28:23;;;;;;;11.05;3.95;;;;;;;19.70;63.36;98191.66;5065853;28;20196;-58
2023/01/18 11:30:54;;;;;;;6.88;2.45;;;;;;;19.69;62.84;98194.44;5068340;28;20192;-60
2023/01/18 11:33:25;;;;;;;10.60;2.53;;;;;;;19.56;63.32;98198.13;5066332;28;20275;-61
2023/01/18 11:35:59;;;;;;;8.45;2.70;;;;;;;19.49;63.50;98199.63;5067685;28;20196;-61
2023/01/18 11:38:29;;;;;;;14.82;2.70;;;;;;;19.54;63.61;98200.03;5068342;28;20196;-59
2023/01/18 11:41:22;;;;;;;13.10;2.67;;;;;;;19.54;63.31;98197.41;5068214;28;20188;-59
2023/01/18 11:43:59;;;;;;;9.80;2.65;;;;;;;19.28;64.36;98195.34;5066899;28;20238;-58
2023/01/18 11:46:34;;;;;;;12.27;2.55;;;;;;;19.24;64.93;98200.03;5066741;28;20198;-55
2023/01/18 11:49:09;;;;;;;9.40;2.60;;;;;;;19.21;64.77;98197.63;5066133;28;20224;-55
2023/01/18 11:51:41;;;;;;;10.13;2.90;;;;;;;19.21;65.14;98195.00;5068170;28;20187;-59
2023/01/18 11:54:25;;;;;;;10.80;3.88;;;;;;;19.30;65.07;98201.31;5067725;28;20206;-59
2023/01/18 11:56:55;;;;;;;14.38;3.15;;;;;;;19.23;64.74;98207.06;5067233;28;20593;-59
2023/01/18 11:59:29;;;;;;;10.75;2.90;;;;;;;19.32;64.51;98215.13;5067963;28;20667;-55
2023/01/18 12:02:28;;;;;;;12.82;4.25;;;;;;;19.47;63.92;98212.03;5068095;28;20240;-55
2023/01/18 12:05:27;;;;;;;13.10;3.97;;;;;;;19.36;64.23;98209.50;5068000;28;20644;-58
2023/01/18 12:08:05;;;;;;;16.17;4.63;;;;;;;19.38;64.40;98217.25;5067431;28;20196;-59